Time;durP1;ratioP1;P1;durP2;ratioP2;P2;SDS_P1;SDS_P2;PMS_P1;PMS_P2;Temp;Humidity;BMP_temperature;BMP_pressure;BME280_temperature;BME280_humidity;BME280_pressure;Samples;Min_cycle;Max_cycle;Signal;HPM_P1;HPM_P2
2022/04/22 00:00:14;;;;;;;6.70;4.63;;;;;;;20.34;37.10;101089.88;5050426;28;20543;-72
2022/04/22 00:02:39;;;;;;;8.20;4.65;;;;;;;20.07;37.21;101092.06;5048877;28;20020;-72
2022/04/22 00:05:05;;;;;;;7.60;4.45;;;;;;;20.82;36.05;101092.97;5050293;28;20080;-73
2022/04/22 00:07:31;;;;;;;10.10;4.65;;;;;;;20.74;36.18;101081.00;5049118;28;20047;-73
2022/04/22 00:09:56;;;;;;;8.20;4.77;;;;;;;19.88;37.18;101085.84;5050453;28;20021;-73
2022/04/22 00:12:22;;;;;;;7.10;3.90;;;;;;;20.79;35.69;101079.84;5049592;28;20024;-73
2022/04/22 00:14:48;;;;;;;6.40;4.40;;;;;;;20.73;36.37;101082.81;5049934;28;20712;-73
2022/04/22 00:17:13;;;;;;;8.33;4.40;;;;;;;20.43;36.19;101082.44;5050102;28;20101;-73
2022/04/22 00:19:39;;;;;;;6.23;4.57;;;;;;;20.41;35.95;101095.78;5049753;28;20031;-73
2022/04/22 00:22:04;;;;;;;7.13;4.60;;;;;;;20.54;36.34;101087.22;5049014;28;20515;-72
2022/04/22 00:24:30;;;;;;;7.60;4.20;;;;;;;20.49;36.32;101090.97;5048288;28;20035;-73
2022/04/22 00:26:55;;;;;;;9.37;5.07;;;;;;;21.17;35.09;101077.06;5048623;28;20564;-73
2022/04/22 00:29:20;;;;;;;8.20;4.50;;;;;;;21.23;35.06;101083.03;5048873;28;20021;-73
2022/04/22 00:31:46;;;;;;;11.83;4.80;;;;;;;20.99;35.40;101085.94;5047715;28;20397;-73
2022/04/22 00:34:11;;;;;;;7.53;4.43;;;;;;;20.72;35.76;101082.84;5048722;28;20023;-72
2022/04/22 00:36:37;;;;;;;9.00;4.30;;;;;;;20.97;35.20;101082.53;5048219;28;20086;-73
2022/04/22 00:39:02;;;;;;;7.63;3.77;;;;;;;20.64;35.53;101083.22;5048417;28;20108;-73
2022/04/22 00:41:27;;;;;;;5.57;3.87;;;;;;;20.56;35.69;101091.53;5048609;28;20111;-73
2022/04/22 00:43:53;;;;;;;8.97;4.30;;;;;;;19.72;37.55;101081.19;5048260;28;20119;-73
2022/04/22 00:46:19;;;;;;;6.83;3.70;;;;;;;20.09;36.50;101074.25;5049660;28;20533;-73
2022/04/22 00:48:45;;;;;;;6.97;4.00;;;;;;;19.48;37.63;101073.41;5048348;28;20480;-72
2022/04/22 00:51:12;;;;;;;6.03;3.37;;;;;;;19.63;37.72;101077.19;5048542;28;20123;-73
2022/04/22 00:53:40;;;;;;;9.40;4.23;;;;;;;18.98;38.28;101076.41;5049145;28;20473;-73
2022/04/22 00:56:08;;;;;;;6.83;4.07;;;;;;;19.47;37.38;101076.97;5048889;28;20033;-73
2022/04/22 00:58:36;;;;;;;8.57;3.80;;;;;;;19.62;37.59;101069.28;5082322;28;20036;-73
2022/04/22 01:01:02;;;;;;;7.60;3.97;;;;;;;19.32;37.62;101070.53;5048356;28;20112;-73
2022/04/22 01:03:28;;;;;;;6.93;3.93;;;;;;;19.48;37.81;101068.09;5049813;28;20418;-73
2022/04/22 01:09:47;;;;;;;9.07;3.83;;;;;;;18.74;38.47;101063.22;5048999;28;20051;-73
2022/04/22 01:11:27;;;;;;;10.33;4.07;;;;;;;19.48;37.62;101060.16;5049948;28;20055;-73
2022/04/22 01:13:54;;;;;;;8.43;4.47;;;;;;;19.48;37.77;101057.50;5049213;28;20025;-73
2022/04/22 01:16:19;;;;;;;6.93;4.27;;;;;;;18.47;39.05;101058.09;5050615;28;20474;-72
2022/04/22 01:18:45;;;;;;;6.73;4.10;;;;;;;18.47;39.11;101051.94;5051896;28;20079;-73
2022/04/22 01:21:10;;;;;;;7.97;3.67;;;;;;;18.50;38.89;101050.97;5051601;28;20063;-73
2022/04/22 01:23:36;;;;;;;5.40;3.83;;;;;;;18.94;38.61;101050.97;5051747;28;20485;-73
2022/04/22 01:26:02;;;;;;;8.60;5.17;;;;;;;19.15;37.81;101043.91;5053568;28;20036;-74
2022/04/22 01:28:28;;;;;;;7.47;4.37;;;;;;;19.36;38.32;101047.44;5051802;28;20107;-73
2022/04/22 01:30:59;;;;;;;7.13;4.37;;;;;;;18.78;39.00;101048.94;5053251;28;20028;-73
2022/04/22 01:33:25;;;;;;;14.97;4.27;;;;;;;19.15;37.94;101047.44;5052203;28;20031;-73
2022/04/22 01:35:51;;;;;;;6.87;4.23;;;;;;;18.63;39.11;101049.56;5050681;28;20120;-73
2022/04/22 01:38:17;;;;;;;8.83;4.40;;;;;;;18.81;39.24;101051.44;5051849;28;20021;-72
2022/04/22 01:40:42;;;;;;;9.43;4.77;;;;;;;18.26;40.06;101054.50;5051566;28;20483;-72
2022/04/22 01:43:08;;;;;;;9.30;5.60;;;;;;;19.12;38.45;101049.34;5051595;28;20024;-74
2022/04/22 01:45:34;;;;;;;7.20;4.70;;;;;;;18.67;39.73;101048.50;5051176;28;20033;-73
2022/04/22 01:47:59;;;;;;;9.73;4.80;;;;;;;19.24;37.84;101048.81;5052780;28;20330;-73
2022/04/22 01:50:24;;;;;;;7.40;5.00;;;;;;;18.38;39.61;101039.94;5052241;28;20028;-72
2022/04/22 01:52:50;;;;;;;10.60;5.73;;;;;;;18.32;39.92;101042.81;5051031;28;20365;-73
2022/04/22 01:55:15;;;;;;;8.93;4.80;;;;;;;19.05;38.79;101038.13;5051315;28;20053;-74
2022/04/22 01:57:41;;;;;;;10.93;5.27;;;;;;;19.14;38.52;101043.06;5050143;28;20040;-72
2022/04/22 02:00:07;;;;;;;8.23;5.00;;;;;;;19.62;37.38;101042.78;5051330;28;20094;-73
2022/04/22 02:02:33;;;;;;;9.00;4.50;;;;;;;19.04;38.35;101035.56;5052420;28;20488;-73
2022/04/22 02:04:58;;;;;;;7.93;4.60;;;;;;;19.76;37.14;101029.75;5051770;28;20111;-73
2022/04/22 02:07:24;;;;;;;9.27;5.17;;;;;;;18.40;39.84;101035.44;5051106;28;20174;-73
2022/04/22 02:09:49;;;;;;;9.83;5.47;;;;;;;19.46;38.11;101027.53;5051471;28;20033;-73
2022/04/22 02:12:15;;;;;;;8.43;5.53;;;;;;;19.04;38.76;101033.78;5034344;28;20035;-73
2022/04/22 02:14:40;;;;;;;8.33;5.07;;;;;;;19.27;38.14;101026.63;5052174;28;20033;-73
2022/04/22 02:17:06;;;;;;;8.20;5.10;;;;;;;18.93;39.31;101017.47;5050822;28;20033;-73
2022/04/22 02:19:31;;;;;;;9.17;5.40;;;;;;;18.67;39.47;101019.41;5052022;28;20492;-73
2022/04/22 02:21:57;;;;;;;8.03;4.60;;;;;;;18.10;40.91;101022.47;5050701;28;20461;-73
2022/04/22 02:24:22;;;;;;;8.13;4.53;;;;;;;18.65;39.37;101013.28;5051993;28;20080;-74
2022/04/22 02:29:31;;;;;;;9.57;5.40;;;;;;;18.38;40.38;101005.56;5052183;28;20086;-73
2022/04/22 02:31:57;;;;;;;7.87;4.40;;;;;;;17.53;41.98;101015.78;5050203;28;20024;-74
2022/04/22 02:34:23;;;;;;;11.97;4.90;;;;;;;18.03;40.90;101014.88;5050459;28;20363;-73
2022/04/22 02:36:50;;;;;;;10.57;5.27;;;;;;;18.30;40.38;101007.66;5051864;28;20210;-73
2022/04/22 02:39:16;;;;;;;9.63;5.10;;;;;;;17.68;41.26;101015.25;5051718;28;20021;-73
2022/04/22 02:47:10;;;;;;;9.03;4.90;;;;;;;17.61;41.56;101013.72;5051789;28;20048;-73
2022/04/22 02:49:43;;;;;;;13.07;5.70;;;;;;;18.13;40.68;101017.09;5050427;28;20476;-73
2022/04/22 02:52:08;;;;;;;12.37;5.30;;;;;;;18.23;40.43;101003.50;5051405;28;20528;-73
2022/04/22 02:54:34;;;;;;;7.43;4.53;;;;;;;18.27;40.61;101007.75;5051399;28;20158;-73
2022/04/22 02:57:00;;;;;;;11.10;5.33;;;;;;;18.65;39.67;101008.00;5050068;28;20096;-73
2022/04/22 02:59:27;;;;;;;9.27;5.20;;;;;;;18.04;40.79;101011.28;5051310;28;20114;-73
2022/04/22 03:01:53;;;;;;;8.77;5.03;;;;;;;17.49;42.01;101009.75;5049632;28;20028;-73
2022/04/22 03:04:19;;;;;;;9.90;5.40;;;;;;;17.99;41.59;101003.53;5050170;28;20028;-73
2022/04/22 03:06:44;;;;;;;11.07;5.00;;;;;;;17.80;41.56;101004.22;5048979;28;20017;-73
2022/04/22 03:09:09;;;;;;;9.10;4.90;;;;;;;17.44;42.81;101007.25;5051214;28;20114;-73
2022/04/22 03:11:38;;;;;;;13.77;6.07;;;;;;;18.10;41.82;100993.38;5049532;28;20032;-73
2022/04/22 03:14:05;;;;;;;8.60;4.67;;;;;;;18.07;40.87;100996.16;5049540;28;20039;-73
2022/04/22 03:16:31;;;;;;;7.67;4.43;;;;;;;18.35;41.16;100992.41;5049574;28;20024;-72
2022/04/22 03:18:56;;;;;;;10.23;4.97;;;;;;;19.53;38.75;100993.66;5049503;28;20029;-73
2022/04/22 03:21:24;;;;;;;9.13;4.90;;;;;;;18.06;41.76;100989.16;5049228;28;20076;-73
2022/04/22 03:23:50;;;;;;;8.47;5.10;;;;;;;18.63;40.98;100983.38;5049123;28;20072;-73
2022/04/22 03:26:16;;;;;;;10.70;4.67;;;;;;;18.89;40.20;100990.25;5051131;28;20147;-72
2022/04/22 03:28:41;;;;;;;8.93;4.80;;;;;;;17.46;43.03;100984.31;5049761;28;20051;-73
2022/04/22 03:31:07;;;;;;;10.37;4.50;;;;;;;18.04;42.70;100980.41;5049627;28;20155;-74
2022/04/22 03:33:32;;;;;;;7.57;4.43;;;;;;;18.08;42.76;100987.31;5049542;28;20170;-73
2022/04/22 03:35:57;;;;;;;7.53;4.47;;;;;;;18.35;42.21;100984.47;5048841;28;20028;-73
2022/04/22 03:38:23;;;;;;;6.67;4.13;;;;;;;18.35;43.03;100979.19;5049092;28;20036;-73
2022/04/22 03:40:51;;;;;;;8.30;4.17;;;;;;;17.76;43.46;100992.03;5050062;28;20048;-73
2022/04/22 03:43:18;;;;;;;9.83;4.43;;;;;;;17.02;45.89;100992.03;5048916;28;20028;-74
2022/04/22 03:45:44;;;;;;;7.87;4.57;;;;;;;17.26;45.82;100981.53;5048731;28;20365;-73
2022/04/22 03:48:10;;;;;;;8.50;4.23;;;;;;;17.63;44.73;100990.75;5049282;28;20059;-73
2022/04/22 03:50:37;;;;;;;13.20;4.63;;;;;;;16.93;46.88;100994.97;5048694;28;20040;-73
2022/04/22 03:53:04;;;;;;;11.13;4.57;;;;;;;18.47;43.39;100989.28;5049548;28;20025;-73
2022/04/22 03:55:33;;;;;;;8.00;4.33;;;;;;;18.64;42.56;100979.78;5048959;28;20028;-73
2022/04/22 03:58:10;;;;;;;8.60;4.43;;;;;;;18.55;43.03;100981.03;5048738;28;20688;-73
2022/04/22 04:00:48;;;;;;;7.40;4.17;;;;;;;16.56;47.76;100980.34;5050165;28;20025;-73
2022/04/22 04:03:22;;;;;;;8.97;4.57;;;;;;;16.74;47.73;100987.63;5050196;28;20056;-73
2022/04/22 04:05:51;;;;;;;6.50;4.50;;;;;;;16.74;48.77;100979.72;5048415;28;20024;-73
2022/04/22 04:08:19;;;;;;;6.60;4.33;;;;;;;16.36;49.18;100979.22;5049191;28;20063;-73
2022/04/22 04:16:16;;;;;;;13.67;4.90;;;;;;;17.59;46.08;100983.84;5050355;28;20411;-73
2022/04/22 04:18:42;;;;;;;8.70;5.17;;;;;;;16.68;48.60;100977.28;5049516;28;20104;-73
2022/04/22 04:23:53;;;;;;;9.17;5.70;;;;;;;17.18;47.67;100983.56;5049261;28;20094;-73
2022/04/22 04:26:21;;;;;;;11.10;5.43;;;;;;;16.23;50.75;100984.00;5050260;28;20455;-74
2022/04/22 04:28:47;;;;;;;10.03;5.80;;;;;;;18.11;45.65;100971.31;5048362;28;20065;-73
2022/04/22 04:31:13;;;;;;;15.77;5.83;;;;;;;18.08;45.33;100976.72;5048693;28;20393;-73
2022/04/22 04:33:39;;;;;;;12.97;5.73;;;;;;;17.45;46.78;100982.56;5049336;28;20469;-73
2022/04/22 04:36:05;;;;;;;11.83;6.23;;;;;;;16.92;48.35;100977.41;5049262;28;20023;-74
2022/04/22 04:38:32;;;;;;;10.40;5.77;;;;;;;17.33;47.55;100983.00;5048759;28;20040;-74
2022/04/22 04:40:58;;;;;;;12.10;6.23;;;;;;;16.86;49.12;100977.59;5048504;28;20028;-73
2022/04/22 04:43:23;;;;;;;12.47;6.33;;;;;;;17.55;47.16;100979.59;5048941;28;20029;-73
2022/04/22 04:45:51;;;;;;;10.47;6.23;;;;;;;17.22;47.76;100986.03;5049096;28;20439;-73
2022/04/22 04:48:17;;;;;;;10.60;5.73;;;;;;;17.45;46.64;100993.16;5049065;28;20029;-73
2022/04/22 04:50:44;;;;;;;16.73;6.90;;;;;;;17.17;48.96;101001.19;5051716;28;20527;-73
2022/04/22 04:53:11;;;;;;;11.10;6.57;;;;;;;17.68;46.36;101004.66;5053619;28;20037;-74
2022/04/22 04:55:37;;;;;;;13.90;6.63;;;;;;;18.13;46.05;100995.94;5052546;28;20086;-74
2022/04/22 04:58:03;;;;;;;11.60;6.77;;;;;;;18.52;44.56;100985.59;5052769;28;20453;-73
2022/04/22 05:00:28;;;;;;;11.30;5.60;;;;;;;17.95;45.94;101001.94;5053432;28;20029;-73
2022/04/22 05:02:55;;;;;;;11.30;6.07;;;;;;;18.39;44.88;100994.03;5051677;28;20086;-74
2022/04/22 05:05:20;;;;;;;14.07;6.50;;;;;;;17.57;46.21;100986.56;5052674;28;20445;-74
2022/04/22 05:07:55;;;;;;;9.27;5.60;;;;;;;16.73;49.71;100985.06;5052749;28;20053;-73
2022/04/22 05:10:20;;;;;;;12.53;6.43;;;;;;;17.79;45.40;100980.44;5052238;28;20459;-73
2022/04/22 05:12:47;;;;;;;11.80;6.83;;;;;;;17.98;45.32;100980.66;5051521;28;20025;-73
2022/04/22 05:15:13;;;;;;;13.43;6.37;;;;;;;18.18;44.22;100979.03;5052361;28;20024;-73
2022/04/22 05:17:41;;;;;;;14.13;6.57;;;;;;;17.66;45.83;100990.63;5051906;28;20021;-73
2022/04/22 05:20:08;;;;;;;11.33;6.60;;;;;;;17.75;46.27;100992.94;5053274;28;20025;-73
2022/04/22 05:22:33;;;;;;;8.87;6.00;;;;;;;18.47;44.11;100980.50;5052099;28;20083;-73
2022/04/22 05:24:59;;;;;;;8.60;5.93;;;;;;;18.59;43.88;100974.69;5053465;28;20107;-73
2022/04/22 05:27:24;;;;;;;10.53;5.67;;;;;;;18.91;43.17;100976.94;5051522;28;20025;-73
2022/04/22 05:32:36;;;;;;;10.17;6.50;;;;;;;17.39;46.33;100993.38;5053615;28;20090;-74
2022/04/22 05:35:03;;;;;;;12.57;6.20;;;;;;;18.25;44.88;100981.34;5051362;28;20036;-73
2022/04/22 05:37:45;;;;;;;9.90;6.17;;;;;;;17.21;46.83;100989.59;5052124;28;20476;-73
2022/04/22 05:40:11;;;;;;;13.83;5.80;;;;;;;17.88;46.65;100989.84;5053444;28;20052;-72
2022/04/22 05:42:38;;;;;;;11.73;6.90;;;;;;;17.95;45.29;100986.06;5051109;28;20432;-73
2022/04/22 05:45:06;;;;;;;11.90;5.93;;;;;;;16.16;49.49;100981.63;5053366;28;20029;-73
2022/04/22 05:47:32;;;;;;;10.97;6.33;;;;;;;18.09;45.82;100978.47;5052898;28;20025;-74
2022/04/22 05:49:57;;;;;;;13.07;6.13;;;;;;;17.20;47.48;100981.72;5051135;28;20031;-73
2022/04/22 05:52:22;;;;;;;8.70;6.43;;;;;;;17.34;47.54;100990.03;5035431;28;20040;-73
2022/04/22 05:54:48;;;;;;;11.03;6.03;;;;;;;16.94;47.66;100986.16;5052438;28;20033;-73
2022/04/22 05:57:13;;;;;;;12.80;6.70;;;;;;;17.77;46.48;100990.25;5035061;28;20484;-73
2022/04/22 05:59:38;;;;;;;12.83;6.73;;;;;;;18.55;44.28;100983.69;5052447;28;20032;-73
2022/04/22 06:02:05;;;;;;;12.23;6.33;;;;;;;17.22;46.89;100993.97;5050500;28;20025;-74
2022/04/22 06:04:30;;;;;;;13.30;6.93;;;;;;;17.08;47.86;100989.16;5051343;28;20040;-73
2022/04/22 06:06:55;;;;;;;12.03;6.23;;;;;;;17.86;46.19;100991.66;5051412;28;20029;-73
2022/04/22 06:12:05;;;;;;;9.63;5.97;;;;;;;16.82;48.45;100997.94;5053171;28;20044;-73
2022/04/22 06:14:30;;;;;;;16.80;6.43;;;;;;;17.62;46.74;101002.25;5051246;28;20033;-74
2022/04/22 06:16:55;;;;;;;12.53;6.10;;;;;;;17.33;46.71;100998.88;5050529;28;20032;-73
2022/04/22 06:19:21;;;;;;;9.90;6.80;;;;;;;17.32;47.33;100997.13;5034697;28;20036;-73
2022/04/22 06:21:47;;;;;;;11.67;5.87;;;;;;;16.92;47.60;100999.38;5050789;28;20045;-74
2022/04/22 06:24:12;;;;;;;15.00;6.63;;;;;;;17.72;45.95;100993.06;5050669;28;20525;-73
2022/04/22 06:26:38;;;;;;;12.03;6.87;;;;;;;17.97;45.96;100979.78;5051967;28;20036;-73
2022/04/22 06:29:03;;;;;;;17.43;6.53;;;;;;;18.30;44.43;100975.91;5051126;28;20128;-73
2022/04/22 06:31:32;;;;;;;12.33;6.63;;;;;;;18.53;43.46;100974.09;5050233;28;20029;-74
2022/04/22 06:33:58;;;;;;;10.37;6.77;;;;;;;17.51;46.12;100976.19;5052471;28;20438;-73
2022/04/22 06:36:28;;;;;;;12.50;7.40;;;;;;;18.45;44.14;100985.84;5052477;28;20063;-73
2022/04/22 06:38:58;;;;;;;14.10;7.53;;;;;;;16.86;48.01;100989.00;5050002;28;20021;-72
2022/04/22 06:46:57;;;;;;;18.17;8.33;;;;;;;18.33;44.43;100970.47;5051943;28;20087;-73
2022/04/22 06:49:23;;;;;;;11.30;6.97;;;;;;;17.84;44.70;100956.50;5051007;28;20032;-73
2022/04/22 06:51:49;;;;;;;12.53;8.13;;;;;;;18.58;43.78;100965.03;5049942;28;20088;-73
2022/04/22 06:54:15;;;;;;;10.90;7.63;;;;;;;18.43;44.66;100961.22;5051918;28;20154;-73
2022/04/22 06:56:41;;;;;;;11.73;7.83;;;;;;;18.99;43.57;100974.84;5050432;28;20488;-73
2022/04/22 06:59:07;;;;;;;14.27;7.93;;;;;;;19.09;43.18;100962.06;5050250;28;20024;-73
2022/04/22 07:01:32;;;;;;;14.17;7.83;;;;;;;18.57;43.33;100967.75;5050607;28;20476;-73
2022/04/22 07:03:58;;;;;;;12.80;8.23;;;;;;;18.03;44.76;100961.97;5051904;28;20032;-73
2022/04/22 07:06:24;;;;;;;12.63;8.20;;;;;;;18.89;42.76;100974.38;5049613;28;20033;-73
2022/04/22 07:08:50;;;;;;;16.23;8.43;;;;;;;17.90;45.05;100972.13;5050133;28;20021;-73
2022/04/22 07:11:21;;;;;;;16.23;8.50;;;;;;;19.31;42.01;100969.91;5051889;28;20361;-73
2022/04/22 07:13:47;;;;;;;13.97;8.50;;;;;;;18.82;43.42;100979.03;5048200;28;20460;-73
2022/04/22 07:16:16;;;;;;;16.30;8.40;;;;;;;18.61;43.23;100974.63;5050767;28;20370;-73
2022/04/22 07:18:42;;;;;;;14.27;7.80;;;;;;;20.76;38.65;100968.44;5051097;28;20066;-73
2022/04/22 07:21:07;;;;;;;12.30;7.47;;;;;;;21.80;36.86;100968.34;5049702;28;20044;-73
2022/04/22 07:23:33;;;;;;;13.88;7.80;;;;;;;22.61;35.21;100956.72;5049892;28;20025;-73
2022/04/22 07:26:00;;;;;;;13.38;7.15;;;;;;;23.46;33.59;100960.47;5051340;28;20032;-73
2022/04/22 07:28:28;;;;;;;11.90;7.80;;;;;;;23.49;33.24;100960.31;5049386;28;20028;-73
2022/04/22 07:30:56;;;;;;;13.13;6.93;;;;;;;22.44;34.64;100955.91;5049410;28;20020;-74
2022/04/22 07:33:21;;;;;;;9.55;6.40;;;;;;;23.71;33.34;100957.16;5049986;28;20075;-73
2022/04/22 07:35:47;;;;;;;15.45;7.05;;;;;;;23.49;32.78;100960.31;5049405;28;20060;-73
2022/04/22 07:38:12;;;;;;;11.15;7.45;;;;;;;23.41;32.63;100956.41;5050148;28;20021;-73
2022/04/22 07:40:40;;;;;;;13.15;6.95;;;;;;;24.47;31.28;100952.28;5048703;28;20037;-73
2022/04/22 07:48:38;;;;;;;13.23;7.03;;;;;;;25.34;30.31;100949.13;5049844;28;20032;-73
2022/04/22 07:51:03;;;;;;;12.20;7.32;;;;;;;25.47;29.76;100941.94;5049942;28;20021;-73
2022/04/22 07:53:29;;;;;;;10.30;6.47;;;;;;;25.27;29.82;100950.50;5049470;28;20438;-73
2022/04/22 07:55:55;;;;;;;13.27;6.63;;;;;;;25.41;29.29;100939.69;5065514;28;20454;-73
2022/04/22 07:58:20;;;;;;;10.80;7.13;;;;;;;25.74;28.28;100951.63;5049748;28;20029;-74
2022/04/22 08:00:46;;;;;;;12.43;7.20;;;;;;;26.57;27.73;100948.19;5048843;28;20031;-73
2022/04/22 08:03:12;;;;;;;13.27;7.28;;;;;;;25.49;29.14;100950.69;5050099;28;20024;-73
2022/04/22 08:05:38;;;;;;;11.48;6.70;;;;;;;25.11;29.54;100951.53;5048975;28;20033;-73
2022/04/22 08:08:05;;;;;;;12.13;6.50;;;;;;;26.54;27.89;100943.06;5049362;28;20028;-73
2022/04/22 08:10:31;;;;;;;12.52;6.88;;;;;;;28.08;26.06;100940.00;5082105;28;20112;-73
2022/04/22 08:12:57;;;;;;;13.27;6.88;;;;;;;25.60;28.43;100951.78;5050548;28;20052;-73
2022/04/22 08:15:22;;;;;;;11.40;7.25;;;;;;;24.94;30.17;100944.69;5049489;28;20134;-72
2022/04/22 08:17:48;;;;;;;12.70;7.43;;;;;;;25.93;28.48;100942.25;5049493;28;20025;-73
2022/04/22 08:20:14;;;;;;;10.38;7.10;;;;;;;25.84;28.92;100944.63;5049206;28;20028;-73
2022/04/22 08:22:39;;;;;;;13.57;7.32;;;;;;;25.91;28.30;100945.03;5049421;28;20107;-73
2022/04/22 08:25:06;;;;;;;10.13;6.63;;;;;;;25.51;28.65;100938.09;5048821;28;20025;-73
2022/04/22 08:27:32;;;;;;;13.57;6.82;;;;;;;26.88;27.15;100937.81;5048880;28;20091;-73
2022/04/22 08:29:59;;;;;;;11.50;5.80;;;;;;;25.00;28.82;100941.59;5082255;28;20025;-73
2022/04/22 08:32:25;;;;;;;12.48;7.45;;;;;;;26.91;27.13;100924.19;5050072;28;20043;-74
2022/04/22 08:34:51;;;;;;;9.43;6.05;;;;;;;27.61;25.90;100920.56;5048576;28;20049;-74
2022/04/22 08:37:17;;;;;;;13.18;6.82;;;;;;;26.92;27.31;100920.50;5048395;28;20112;-73
2022/04/22 08:39:42;;;;;;;12.60;6.95;;;;;;;27.66;26.05;100913.00;5048200;28;20020;-73
2022/04/22 08:42:11;;;;;;;16.05;6.97;;;;;;;27.04;26.49;100913.34;5049189;28;20036;-74
2022/04/22 08:44:36;;;;;;;10.93;7.10;;;;;;;26.68;27.76;100915.22;5031061;28;20443;-74
2022/04/22 08:49:58;;;;;;;11.27;7.03;;;;;;;28.27;25.28;100916.03;5049956;28;20044;-73
2022/04/22 08:52:25;;;;;;;14.75;6.75;;;;;;;29.99;23.23;100894.91;5048331;28;20128;-73
2022/04/22 08:54:53;;;;;;;10.65;6.53;;;;;;;29.18;23.85;100907.41;5049702;28;20035;-74
2022/04/22 08:57:19;;;;;;;12.32;7.65;;;;;;;28.88;24.11;100900.16;5032471;28;20102;-73
2022/04/22 08:59:45;;;;;;;12.38;6.97;;;;;;;28.11;24.25;100896.78;5047527;28;20029;-74
2022/04/22 09:02:12;;;;;;;15.38;6.57;;;;;;;29.18;24.32;100893.97;5050131;28;20032;-73
2022/04/22 09:04:37;;;;;;;11.48;6.70;;;;;;;29.66;23.21;100888.88;5081932;28;20108;-73
2022/04/22 09:07:04;;;;;;;11.10;6.30;;;;;;;30.10;23.18;100886.69;5048211;28;20115;-73
2022/04/22 09:09:30;;;;;;;8.75;6.05;;;;;;;30.42;22.06;100881.00;5050022;28;20032;-73
2022/04/22 09:12:09;;;;;;;9.00;5.63;;;;;;;28.45;24.07;100885.88;5049280;28;20389;-73
2022/04/22 09:14:39;;;;;;;16.17;5.93;;;;;;;27.21;25.48;100892.38;5048163;28;20028;-74
2022/04/22 09:17:04;;;;;;;9.07;5.15;;;;;;;27.51;24.45;100878.34;5048720;28;20021;-73
2022/04/22 09:19:36;;;;;;;8.13;5.60;;;;;;;27.68;24.37;100889.53;5049362;28;20024;-73
2022/04/22 09:22:02;;;;;;;11.45;6.15;;;;;;;26.46;25.68;100886.53;5048646;28;20412;-73
2022/04/22 09:24:27;;;;;;;8.52;5.32;;;;;;;26.52;25.42;100866.44;5048490;28;20025;-73
2022/04/22 09:27:06;;;;;;;8.13;5.43;;;;;;;28.13;23.81;100865.25;5046964;28;20033;-73
2022/04/22 09:29:41;;;;;;;8.32;5.20;;;;;;;27.48;24.69;100854.47;5048403;28;20477;-74
2022/04/22 09:32:09;;;;;;;9.75;5.45;;;;;;;27.99;23.98;100862.88;5048901;28;20105;-73
2022/04/22 09:34:42;;;;;;;7.57;5.38;;;;;;;29.04;22.76;100867.41;5047530;28;20036;-73
2022/04/22 09:43:17;;;;;;;6.88;4.60;;;;;;;28.58;22.57;100846.19;5021179;28;20064;-73
2022/04/22 09:45:44;;;;;;;8.32;4.65;;;;;;;28.38;22.77;100855.13;5014234;28;20095;-72
2022/04/22 09:48:19;;;;;;;11.80;4.82;;;;;;;28.38;23.33;100855.97;5041050;28;20041;-73
2022/04/22 09:50:54;;;;;;;9.40;5.25;;;;;;;28.37;23.27;100842.66;5052863;28;20108;-73
2022/04/22 09:53:34;;;;;;;8.18;5.50;;;;;;;28.06;23.51;100839.91;5052009;28;20021;-73
2022/04/22 09:56:09;;;;;;;6.70;4.80;;;;;;;28.81;22.52;100846.09;5052410;28;20477;-73
2022/04/22 09:58:36;;;;;;;6.35;4.57;;;;;;;28.18;23.32;100836.19;5051732;28;20508;-74
2022/04/22 10:01:05;;;;;;;6.78;4.47;;;;;;;28.09;23.94;100826.22;5051388;28;20048;-74
2022/04/22 10:03:32;;;;;;;8.25;4.45;;;;;;;26.84;24.70;100841.66;5051464;28;20021;-73
2022/04/22 10:05:59;;;;;;;11.80;4.50;;;;;;;27.73;24.45;100841.69;5051578;28;20021;-73
2022/04/22 10:08:28;;;;;;;11.40;4.70;;;;;;;28.94;22.77;100830.56;5051226;28;20086;-73
2022/04/22 10:10:57;;;;;;;6.35;4.10;;;;;;;28.34;23.22;100841.09;5052207;28;20036;-73
2022/04/22 10:13:25;;;;;;;6.95;4.68;;;;;;;28.20;23.40;100822.63;5051772;28;20378;-74
2022/04/22 10:15:51;;;;;;;9.50;4.70;;;;;;;27.83;23.44;100831.06;5050181;28;20227;-73
2022/04/22 10:18:17;;;;;;;9.50;4.57;;;;;;;26.20;24.62;100822.38;5051689;28;20377;-73
2022/04/22 10:20:44;;;;;;;6.18;4.28;;;;;;;27.86;23.36;100818.22;5052118;28;20079;-73
2022/04/22 10:23:10;;;;;;;7.93;4.40;;;;;;;27.82;23.22;100822.16;5050670;28;20021;-72
2022/04/22 10:25:39;;;;;;;6.03;4.40;;;;;;;28.17;23.01;100833.63;5050997;28;20385;-73
2022/04/22 10:28:10;;;;;;;6.30;4.47;;;;;;;28.31;23.04;100827.06;5051435;28;20029;-73
2022/04/22 10:30:40;;;;;;;10.95;4.70;;;;;;;29.17;22.17;100819.59;5050036;28;20040;-74
2022/04/22 10:33:08;;;;;;;6.97;4.90;;;;;;;29.19;22.27;100817.63;5052870;28;20036;-73
2022/04/22 10:35:39;;;;;;;9.32;5.82;;;;;;;30.39;21.45;100818.44;5050759;28;20056;-73
2022/04/22 10:38:05;;;;;;;6.07;4.65;;;;;;;28.87;22.44;100829.41;5050698;28;20033;-74
2022/04/22 10:40:30;;;;;;;8.13;4.97;;;;;;;29.20;22.41;100824.69;5052198;28;20469;-73
2022/04/22 10:42:58;;;;;;;8.48;4.03;;;;;;;27.43;23.91;100822.59;5051020;28;20052;-74
2022/04/22 10:48:24;;;;;;;7.43;4.55;;;;;;;28.69;22.70;100804.13;5052692;28;20115;-73
2022/04/22 10:51:03;;;;;;;6.63;4.43;;;;;;;28.15;22.70;100814.97;5049901;28;20032;-74
2022/04/22 10:53:33;;;;;;;6.82;3.90;;;;;;;26.56;24.97;100811.63;5051237;28;20021;-74
2022/04/22 10:56:27;;;;;;;8.13;3.92;;;;;;;27.55;24.82;100799.28;5050479;28;20028;-73
2022/04/22 10:59:20;;;;;;;10.20;3.97;;;;;;;28.89;22.61;100795.16;5050996;28;20040;-73
2022/04/22 11:01:46;;;;;;;9.32;4.60;;;;;;;28.92;22.63;100799.41;5050478;28;20020;-74
2022/04/22 11:04:26;;;;;;;4.50;3.85;;;;;;;29.32;22.13;100800.41;5052265;28;20075;-74
2022/04/22 11:06:52;;;;;;;7.45;4.40;;;;;;;27.92;23.41;100795.38;5051033;28;20033;-74
2022/04/22 11:09:31;;;;;;;8.30;4.07;;;;;;;27.36;23.77;100796.41;5050805;28;20037;-73
2022/04/22 11:11:58;;;;;;;11.35;3.88;;;;;;;29.10;22.64;100802.31;5051022;28;20048;-73
2022/04/22 11:14:28;;;;;;;5.15;4.05;;;;;;;26.78;25.01;100802.78;5050439;28;20025;-73
2022/04/22 11:17:15;;;;;;;9.95;4.75;;;;;;;26.68;25.51;100799.06;5050117;28;20048;-73
2022/04/22 11:19:57;;;;;;;6.80;3.78;;;;;;;27.16;24.95;100780.09;5049197;28;20477;-73
2022/04/22 11:22:58;;;;;;;11.52;4.28;;;;;;;28.32;23.30;100785.78;5051530;28;20558;-74
2022/04/22 11:25:29;;;;;;;7.75;3.90;;;;;;;27.98;23.49;100778.72;5050162;28;20480;-73
2022/04/22 11:27:56;;;;;;;5.65;4.20;;;;;;;27.55;23.98;100780.50;5050790;28;20118;-74
2022/04/22 11:30:22;;;;;;;5.82;3.65;;;;;;;29.11;23.36;100769.00;5050445;28;20032;-73
2022/04/22 11:32:51;;;;;;;6.20;3.50;;;;;;;28.43;22.78;100766.91;5048822;28;20473;-74
2022/04/22 11:35:21;;;;;;;7.22;3.47;;;;;;;28.70;22.33;100778.94;5050442;28;20044;-74
2022/04/22 11:38:01;;;;;;;5.63;3.03;;;;;;;29.40;21.71;100765.56;5049325;28;20021;-73
2022/04/22 11:40:27;;;;;;;6.45;3.15;;;;;;;29.70;21.15;100756.50;5049667;28;20029;-73
2022/04/22 11:42:54;;;;;;;4.63;3.47;;;;;;;28.55;22.09;100773.88;5049575;28;20476;-74
2022/04/22 11:45:20;;;;;;;3.53;3.20;;;;;;;29.87;20.30;100772.97;5049765;28;20029;-73
2022/04/22 11:47:46;;;;;;;10.02;3.08;;;;;;;28.46;21.60;100776.53;5050158;28;20029;-73
2022/04/22 11:50:20;;;;;;;6.38;2.80;;;;;;;27.92;22.77;100769.38;5049960;28;20024;-74
2022/04/22 11:52:56;;;;;;;6.25;3.80;;;;;;;30.54;20.36;100768.50;5049013;28;20029;-73
2022/04/22 11:55:22;;;;;;;6.03;3.65;;;;;;;29.72;21.38;100769.84;5050502;28;20048;-74
2022/04/22 11:57:48;;;;;;;5.97;3.65;;;;;;;29.82;21.40;100770.69;5050467;28;20029;-75
2022/04/22 12:05:52;;;;;;;8.00;3.67;;;;;;;28.22;23.85;100770.47;5050590;28;20527;-73
2022/04/22 12:08:18;;;;;;;8.30;4.15;;;;;;;28.13;23.42;100760.50;5048613;28;20170;-73
2022/04/22 12:10:46;;;;;;;8.32;4.03;;;;;;;27.74;23.43;100762.88;5050173;28;20443;-74
2022/04/22 12:13:13;;;;;;;8.13;3.85;;;;;;;26.47;25.02;100764.94;5049213;28;20025;-73
2022/04/22 12:15:42;;;;;;;5.35;3.00;;;;;;;25.44;25.38;100760.22;5048393;28;20036;-74